createdAt,value
2022-09-22T00:01:43.417Z,100.00
2022-09-22T00:04:13.994Z,100.00
2022-09-22T00:06:47.289Z,100.00
2022-09-22T00:09:18.319Z,100.00
2022-09-22T00:11:49.314Z,100.00
2022-09-22T00:14:21.149Z,100.00
2022-09-22T00:16:52.664Z,100.00
2022-09-22T00:19:24.854Z,100.00
2022-09-22T00:21:56.068Z,100.00
2022-09-22T00:24:26.712Z,100.00
2022-09-22T00:26:57.713Z,100.00
2022-09-22T00:29:28.687Z,100.00
2022-09-22T00:32:00.268Z,100.00
2022-09-22T00:34:31.332Z,100.00
2022-09-22T00:37:02.002Z,100.00
2022-09-22T00:39:31.808Z,100.00
2022-09-22T00:42:00.870Z,100.00
2022-09-22T00:44:43.640Z,100.00
2022-09-22T00:47:38.100Z,100.00
2022-09-22T00:50:15.161Z,100.00
2022-09-22T00:52:49.610Z,100.00
2022-09-22T00:55:23.856Z,100.00
2022-09-22T00:57:54.843Z,100.00
2022-09-22T01:00:24.405Z,100.00
2022-09-22T01:02:57.614Z,100.00
2022-09-22T01:05:29.177Z,100.00
2022-09-22T01:07:59.717Z,100.00
2022-09-22T01:10:28.805Z,100.00
2022-09-22T01:13:05.959Z,100.00
2022-09-22T01:15:41.705Z,100.00
2022-09-22T01:18:22.269Z,100.00
2022-09-22T01:21:20.269Z,100.00
2022-09-22T01:24:20.442Z,100.00
2022-09-22T01:27:41.584Z,100.00
2022-09-22T01:30:22.242Z,100.00
2022-09-22T01:33:29.303Z,100.00
2022-09-22T01:36:11.277Z,100.00
2022-09-22T01:38:49.151Z,100.00
2022-09-22T01:41:24.120Z,100.00
2022-09-22T01:43:57.544Z,100.00
2022-09-22T01:46:32.117Z,100.00
2022-09-22T01:49:06.349Z,100.00
2022-09-22T01:51:41.435Z,100.00
2022-09-22T01:54:15.817Z,100.00
2022-09-22T01:56:49.381Z,100.00
2022-09-22T01:59:21.195Z,100.00
2022-09-22T02:01:57.236Z,100.00
2022-09-22T02:04:32.493Z,100.00
2022-09-22T02:07:05.737Z,100.00
2022-09-22T02:09:36.932Z,100.00
2022-09-22T02:12:06.577Z,100.00
2022-09-22T02:14:36.257Z,100.00
2022-09-22T02:17:06.707Z,100.00
2022-09-22T02:19:39.845Z,100.00
2022-09-22T02:22:11.110Z,100.00
2022-09-22T02:24:42.250Z,100.00
2022-09-22T02:27:16.129Z,100.00
2022-09-22T02:29:50.897Z,100.00
2022-09-22T02:32:22.757Z,100.00
2022-09-22T02:34:52.146Z,100.00
2022-09-22T02:37:29.034Z,100.00
2022-09-22T02:40:08.176Z,100.00
2022-09-22T02:42:43.360Z,100.00
2022-09-22T02:45:18.212Z,100.00
2022-09-22T02:47:53.105Z,100.00
2022-09-22T02:50:26.431Z,100.00
2022-09-22T02:52:59.300Z,100.00
2022-09-22T02:55:28.571Z,100.00
2022-09-22T02:57:57.520Z,100.00
2022-09-22T03:00:26.782Z,100.00
2022-09-22T03:02:57.313Z,100.00
2022-09-22T03:05:26.698Z,100.00
2022-09-22T03:07:55.630Z,100.00
2022-09-22T03:10:24.729Z,100.00
2022-09-22T03:13:14.889Z,100.00
2022-09-22T03:15:42.966Z,100.00
2022-09-22T03:18:13.470Z,100.00
2022-09-22T03:20:42.853Z,100.00
2022-09-22T03:23:11.896Z,100.00
2022-09-22T03:25:41.361Z,100.00
2022-09-22T03:28:10.413Z,100.00
2022-09-22T03:30:40.332Z,100.00
2022-09-22T03:33:09.565Z,100.00
2022-09-22T03:35:40.211Z,100.00
2022-09-22T03:38:09.392Z,100.00
2022-09-22T03:40:38.582Z,100.00
2022-09-22T03:43:07.547Z,100.00
2022-09-22T03:45:36.438Z,100.00
2022-09-22T03:48:05.643Z,100.00
2022-09-22T03:50:34.519Z,100.00
2022-09-22T03:53:04.770Z,100.00
2022-09-22T03:55:34.507Z,100.00
2022-09-22T03:58:03.780Z,100.00
2022-09-22T04:00:32.780Z,100.00
2022-09-22T04:03:01.722Z,100.00
2022-09-22T04:05:30.870Z,100.00
2022-09-22T04:08:00.098Z,100.00
2022-09-22T04:10:30.362Z,100.00
2022-09-22T04:12:59.357Z,100.00
2022-09-22T04:15:28.337Z,100.00
2022-09-22T04:17:57.381Z,100.00
2022-09-22T04:20:27.563Z,100.00
2022-09-22T04:22:56.607Z,100.00
2022-09-22T04:25:25.652Z,100.00
2022-09-22T04:27:55.934Z,100.00
2022-09-22T04:30:24.966Z,100.00
2022-09-22T04:32:54.076Z,100.00
2022-09-22T04:35:23.020Z,100.00
2022-09-22T04:37:53.137Z,100.00
2022-09-22T04:40:22.581Z,100.00
2022-09-22T04:42:51.936Z,100.00
2022-09-22T04:45:22.370Z,100.00
2022-09-22T04:47:52.766Z,100.00
2022-09-22T04:50:23.455Z,100.00
2022-09-22T04:52:54.752Z,100.00
2022-09-22T04:55:26.225Z,100.00
2022-09-22T04:57:58.185Z,100.00
2022-09-22T05:00:30.943Z,100.00
2022-09-22T05:03:02.243Z,100.00
2022-09-22T05:05:32.299Z,100.00
2022-09-22T05:08:02.462Z,100.00
2022-09-22T05:10:37.176Z,100.00
2022-09-22T05:13:08.417Z,100.00
2022-09-22T05:15:40.061Z,100.00
2022-09-22T05:18:10.700Z,100.00
2022-09-22T05:20:40.788Z,100.00
2022-09-22T05:23:11.809Z,100.00
2022-09-22T05:25:41.963Z,100.00
2022-09-22T05:28:12.615Z,100.00
2022-09-22T05:30:43.180Z,100.00
2022-09-22T05:33:12.087Z,100.00
2022-09-22T05:35:41.198Z,100.00
2022-09-22T05:38:10.393Z,100.00
2022-09-22T05:40:41.296Z,100.00
2022-09-22T05:43:10.506Z,100.00
2022-09-22T05:45:39.548Z,100.00
2022-09-22T05:48:09.986Z,100.00
2022-09-22T05:50:39.150Z,100.00
2022-09-22T05:53:10.693Z,100.00
2022-09-22T05:55:41.199Z,100.00
2022-09-22T05:58:12.747Z,100.00
2022-09-22T06:00:42.500Z,100.00
2022-09-22T06:03:12.899Z,100.00
2022-09-22T06:05:41.895Z,100.00
2022-09-22T06:08:10.849Z,100.00
2022-09-22T06:10:40.897Z,100.00
2022-09-22T06:13:11.759Z,100.00
2022-09-22T06:15:41.871Z,100.00
2022-09-22T06:18:15.324Z,100.00
2022-09-22T06:20:45.476Z,100.00
2022-09-22T06:23:15.371Z,100.00
2022-09-22T06:25:44.417Z,100.00
2022-09-22T06:28:15.591Z,100.00
2022-09-22T06:30:44.602Z,100.00
2022-09-22T06:33:14.920Z,100.00
2022-09-22T06:35:45.386Z,100.00
2022-09-22T06:38:15.852Z,100.00
2022-09-22T06:40:45.376Z,100.00
2022-09-22T06:43:22.832Z,100.00
2022-09-22T06:45:53.293Z,100.00
2022-09-22T06:48:24.305Z,100.00
2022-09-22T06:50:54.393Z,100.00
2022-09-22T06:53:26.736Z,100.00
2022-09-22T06:56:03.174Z,100.00
2022-09-22T06:58:47.021Z,100.00
2022-09-22T07:01:21.929Z,100.00
2022-09-22T07:03:52.601Z,100.00
2022-09-22T07:06:21.601Z,100.00
2022-09-22T07:08:50.843Z,100.00
2022-09-22T07:11:23.547Z,100.00
2022-09-22T07:13:54.060Z,100.00
2022-09-22T07:16:24.836Z,100.00
2022-09-22T07:18:58.289Z,100.00
2022-09-22T07:21:32.762Z,100.00
2022-09-22T07:24:01.777Z,100.00
2022-09-22T07:26:32.563Z,100.00
2022-09-22T07:29:03.220Z,100.00
2022-09-22T07:31:36.575Z,97.88
2022-09-22T07:34:07.125Z,96.12
2022-09-22T07:36:37.932Z,95.52
2022-09-22T07:39:08.512Z,94.29
2022-09-22T07:41:41.771Z,92.90
2022-09-22T07:44:44.740Z,91.29
2022-09-22T07:47:36.683Z,92.10
2022-09-22T07:50:07.777Z,88.84
2022-09-22T07:52:36.706Z,89.59
2022-09-22T07:55:06.284Z,87.69
2022-09-22T07:57:36.566Z,88.41
2022-09-22T08:00:06.238Z,86.90
2022-09-22T08:02:41.105Z,84.14
2022-09-22T08:05:11.729Z,82.09
2022-09-22T08:07:41.708Z,78.76
2022-09-22T08:10:12.214Z,77.94
2022-09-22T08:12:42.774Z,77.41
2022-09-22T08:15:13.044Z,76.15
2022-09-22T08:17:43.961Z,75.62
2022-09-22T08:20:14.292Z,75.53
2022-09-22T08:22:43.402Z,74.85
2022-09-22T08:25:13.106Z,73.01
2022-09-22T08:27:42.060Z,72.07
2022-09-22T08:30:11.947Z,72.68
2022-09-22T08:32:41.158Z,71.60
2022-09-22T08:35:11.258Z,68.48
2022-09-22T08:37:43.767Z,69.19
2022-09-22T08:40:23.682Z,67.62
2022-09-22T08:42:54.372Z,68.60
2022-09-22T08:45:32.358Z,70.99
2022-09-22T08:48:23.833Z,66.40
2022-09-22T08:51:14.251Z,66.35
2022-09-22T08:53:51.513Z,65.77
2022-09-22T08:56:30.706Z,63.61
2022-09-22T08:59:09.129Z,63.69
2022-09-22T09:01:53.794Z,61.28
2022-09-22T09:04:47.589Z,62.77
2022-09-22T09:07:27.415Z,61.62
2022-09-22T09:10:06.863Z,59.74
2022-09-22T09:12:49.396Z,60.65
2022-09-22T09:15:41.549Z,59.47
2022-09-22T09:18:17.414Z,60.89
2022-09-22T09:20:48.223Z,61.17
2022-09-22T09:23:19.647Z,59.45
2022-09-22T09:25:54.311Z,58.99
2022-09-22T09:28:31.655Z,56.71
2022-09-22T09:31:10.398Z,55.24
2022-09-22T09:33:48.214Z,54.99
2022-09-22T09:36:22.772Z,54.29
2022-09-22T09:38:55.784Z,53.58
2022-09-22T09:41:32.395Z,53.38
2022-09-22T09:44:03.515Z,52.35
2022-09-22T09:46:48.021Z,52.33
2022-09-22T09:49:20.090Z,52.52
2022-09-22T09:51:51.916Z,53.21
2022-09-22T09:54:21.721Z,50.33
2022-09-22T09:57:07.718Z,52.30
2022-09-22T09:59:56.055Z,51.36
2022-09-22T10:02:28.552Z,49.54
2022-09-22T10:04:59.874Z,53.60
2022-09-22T10:10:24.613Z,51.15
2022-09-22T10:12:56.860Z,49.04
2022-09-22T10:15:27.547Z,51.88
2022-09-22T10:17:56.484Z,49.06
2022-09-22T10:20:28.295Z,50.28
2022-09-22T10:22:57.952Z,49.15
2022-09-22T10:25:34.002Z,48.66
2022-09-22T10:28:06.882Z,47.84
2022-09-22T10:30:37.648Z,48.54
2022-09-22T10:33:22.201Z,49.51
2022-09-22T10:35:56.564Z,45.86
2022-09-22T10:38:28.973Z,45.37
2022-09-22T10:41:04.389Z,44.84
2022-09-22T10:43:42.488Z,46.07
2022-09-22T10:46:34.703Z,41.75
2022-09-22T10:49:12.153Z,42.94
2022-09-22T10:51:55.467Z,40.85
2022-09-22T10:54:51.439Z,41.37
2022-09-22T10:57:33.089Z,41.69
2022-09-22T11:00:12.484Z,43.65
2022-09-22T11:03:15.454Z,42.58
2022-09-22T11:06:21.746Z,41.63
2022-09-22T11:09:16.867Z,42.08
2022-09-22T11:12:09.116Z,42.22
2022-09-22T11:14:54.541Z,40.77
2022-09-22T11:17:38.563Z,39.86
2022-09-22T11:20:32.243Z,43.81
2022-09-22T11:23:34.682Z,46.06
2022-09-22T11:26:21.119Z,45.00
2022-09-22T11:29:12.795Z,42.92
2022-09-22T11:31:48.932Z,41.68
2022-09-22T11:34:47.080Z,42.46
2022-09-22T11:37:30.002Z,45.26
2022-09-22T11:40:27.170Z,43.01
2022-09-22T11:43:05.297Z,39.68
2022-09-22T11:45:48.104Z,37.25
2022-09-22T11:48:30.181Z,36.62
2022-09-22T11:51:27.275Z,37.80
2022-09-22T11:54:11.517Z,39.05
2022-09-22T11:56:44.542Z,37.24
2022-09-22T11:59:26.893Z,37.58
2022-09-22T12:01:58.969Z,41.96
2022-09-22T12:04:36.166Z,44.00
2022-09-22T12:07:10.325Z,46.00
2022-09-22T12:09:45.433Z,45.70
2022-09-22T12:12:20.216Z,48.79
2022-09-22T12:14:57.858Z,44.36
2022-09-22T12:17:36.705Z,41.73
2022-09-22T12:20:20.017Z,39.52
2022-09-22T12:23:12.436Z,41.17
2022-09-22T12:25:49.250Z,43.79
2022-09-22T12:28:25.660Z,45.96
2022-09-22T12:31:06.200Z,46.16
2022-09-22T12:33:38.067Z,47.01
2022-09-22T12:36:07.819Z,46.08
2022-09-22T12:38:38.839Z,45.36
2022-09-22T12:41:08.513Z,46.16
2022-09-22T12:43:38.315Z,49.10
2022-09-22T12:46:22.105Z,47.95
2022-09-22T12:48:51.568Z,49.33
2022-09-22T12:51:35.392Z,46.00
2022-09-22T12:54:47.176Z,43.86
2022-09-22T12:57:31.073Z,48.04
2022-09-22T13:00:32.214Z,45.48
2022-09-22T13:03:24.177Z,42.12
2022-09-22T13:05:56.444Z,43.47
2022-09-22T13:08:27.288Z,42.75
2022-09-22T13:10:59.348Z,44.77
2022-09-22T13:13:37.567Z,43.73
2022-09-22T13:16:37.857Z,45.13
2022-09-22T13:19:11.499Z,45.62
2022-09-22T13:21:41.978Z,43.57
2022-09-22T13:24:26.547Z,43.50
2022-09-22T13:27:05.632Z,45.47
2022-09-22T13:29:36.380Z,45.11
2022-09-22T13:32:26.517Z,46.50
2022-09-22T13:34:55.447Z,48.46
2022-09-22T13:37:26.218Z,48.83
2022-09-22T13:39:57.075Z,48.22
2022-09-22T13:42:31.242Z,49.59
2022-09-22T13:45:03.835Z,49.50
2022-09-22T13:47:33.724Z,48.38
2022-09-22T13:50:05.791Z,48.40
2022-09-22T13:52:39.318Z,49.03
2022-09-22T13:55:11.432Z,49.11
2022-09-22T13:57:41.372Z,49.81
2022-09-22T14:00:24.331Z,47.55
2022-09-22T14:02:53.768Z,48.50
2022-09-22T14:05:25.821Z,47.64
2022-09-22T14:08:12.078Z,46.79
2022-09-22T14:10:44.422Z,45.00
2022-09-22T14:13:38.823Z,41.52
2022-09-22T14:16:24.626Z,48.09
2022-09-22T14:18:59.452Z,52.17
2022-09-22T14:21:28.918Z,52.47
2022-09-22T14:24:00.069Z,47.63
2022-09-22T14:26:34.371Z,46.00
2022-09-22T14:29:18.527Z,42.92
2022-09-22T14:31:53.111Z,43.29
2022-09-22T14:34:25.648Z,42.64
2022-09-22T14:36:56.162Z,43.11
2022-09-22T14:39:33.936Z,44.28
2022-09-22T14:42:11.943Z,47.16
2022-09-22T14:44:46.134Z,46.96
2022-09-22T14:47:27.245Z,46.52
2022-09-22T14:50:10.553Z,48.79
2022-09-22T14:52:43.154Z,50.90
2022-09-22T14:55:20.339Z,47.73
2022-09-22T14:57:51.062Z,46.58
2022-09-22T15:00:40.497Z,44.97
2022-09-22T15:03:21.228Z,44.57
2022-09-22T15:05:51.324Z,44.92
2022-09-22T15:08:27.740Z,44.33
2022-09-22T15:11:00.239Z,49.14
2022-09-22T15:13:32.234Z,49.96
2022-09-22T15:16:01.233Z,47.99
2022-09-22T15:18:31.227Z,49.20
2022-09-22T15:21:06.135Z,49.50
2022-09-22T15:23:40.922Z,49.59
2022-09-22T15:26:20.683Z,49.41
2022-09-22T15:28:53.880Z,47.33
2022-09-22T15:31:26.635Z,44.77
2022-09-22T15:33:57.022Z,44.69
2022-09-22T15:36:26.439Z,46.73
2022-09-22T15:39:00.419Z,46.35
2022-09-22T15:41:31.683Z,49.50
2022-09-22T15:44:00.779Z,49.27
2022-09-22T15:46:35.146Z,49.49
2022-09-22T15:49:08.945Z,49.66
2022-09-22T15:51:37.900Z,51.73
2022-09-22T15:54:13.822Z,51.88
2022-09-22T15:56:45.069Z,52.44
2022-09-22T15:59:18.253Z,54.39
2022-09-22T16:01:47.451Z,52.51
2022-09-22T16:04:17.232Z,53.66
2022-09-22T16:06:51.104Z,54.86
2022-09-22T16:09:20.210Z,54.87
2022-09-22T16:11:50.556Z,54.78
2022-09-22T16:14:19.769Z,55.77
2022-09-22T16:16:49.082Z,57.62
2022-09-22T16:19:18.061Z,58.81
2022-09-22T16:21:51.253Z,58.38
2022-09-22T16:24:22.220Z,60.45
2022-09-22T16:26:53.513Z,60.65
2022-09-22T16:29:22.451Z,60.80
2022-09-22T16:31:51.546Z,62.60
2022-09-22T16:34:21.173Z,63.24
2022-09-22T16:36:50.070Z,62.82
2022-09-22T16:39:19.035Z,62.92
2022-09-22T16:41:48.361Z,64.19
2022-09-22T16:44:18.630Z,64.25
2022-09-22T16:46:47.577Z,65.00
2022-09-22T16:49:19.917Z,65.81
2022-09-22T16:51:50.555Z,66.74
2022-09-22T16:54:20.196Z,67.44
2022-09-22T16:56:50.860Z,67.59
2022-09-22T16:59:22.513Z,68.07
2022-09-22T17:01:51.870Z,67.40
2022-09-22T17:04:21.568Z,69.00
2022-09-22T17:06:50.884Z,69.28
2022-09-22T17:09:20.156Z,70.22
2022-09-22T17:11:50.000Z,71.17
2022-09-22T17:14:22.980Z,71.14
2022-09-22T17:16:53.464Z,71.54
2022-09-22T17:19:23.864Z,71.40
2022-09-22T17:21:55.125Z,71.59
2022-09-22T17:24:25.178Z,72.33
2022-09-22T17:26:55.800Z,72.72
2022-09-22T17:29:28.278Z,73.61
2022-09-22T17:31:59.933Z,73.90
2022-09-22T17:34:31.449Z,73.99
2022-09-22T17:37:01.221Z,74.21
2022-09-22T17:39:31.693Z,75.30
2022-09-22T17:42:00.783Z,75.61
2022-09-22T17:44:33.442Z,74.94
2022-09-22T17:47:20.245Z,74.67
2022-09-22T17:50:06.782Z,74.98
2022-09-22T17:52:53.219Z,75.65
2022-09-22T17:55:25.306Z,74.52
2022-09-22T17:57:56.306Z,75.54
2022-09-22T18:00:27.521Z,75.11
2022-09-22T18:02:56.641Z,77.34
2022-09-22T18:05:32.124Z,77.52
2022-09-22T18:08:01.201Z,77.14
2022-09-22T18:10:33.251Z,77.64
2022-09-22T18:13:04.278Z,79.24
2022-09-22T18:15:39.602Z,79.29
2022-09-22T18:18:08.610Z,79.34
2022-09-22T18:20:37.573Z,79.90
2022-09-22T18:23:07.135Z,80.58
2022-09-22T18:25:36.359Z,81.35
2022-09-22T18:28:05.586Z,80.99
2022-09-22T18:30:37.422Z,82.87
2022-09-22T18:33:06.334Z,83.30
2022-09-22T18:35:35.317Z,83.39
2022-09-22T18:38:04.403Z,84.62
2022-09-22T18:40:33.510Z,83.38
2022-09-22T18:43:02.675Z,83.62
2022-09-22T18:45:32.109Z,84.34
2022-09-22T18:48:02.809Z,83.96
2022-09-22T18:50:34.518Z,85.12
2022-09-22T18:53:03.546Z,85.73
2022-09-22T18:55:32.566Z,85.84
2022-09-22T18:58:02.110Z,85.51
2022-09-22T19:00:31.524Z,85.60
2022-09-22T19:03:01.938Z,87.18
2022-09-22T19:05:30.931Z,87.32
2022-09-22T19:08:00.875Z,86.65
2022-09-22T19:10:29.800Z,87.19
2022-09-22T19:12:59.327Z,87.59
2022-09-22T19:15:28.405Z,88.14
2022-09-22T19:17:57.394Z,88.29
2022-09-22T19:20:28.375Z,89.47
2022-09-22T19:22:57.352Z,89.96
2022-09-22T19:25:26.647Z,89.07
2022-09-22T19:27:55.960Z,89.91
2022-09-22T19:30:28.614Z,90.07
2022-09-22T19:33:00.639Z,90.25
2022-09-22T19:35:32.138Z,90.96
2022-09-22T19:38:03.559Z,91.00
2022-09-22T19:40:33.862Z,91.42
2022-09-22T19:43:03.120Z,90.85
2022-09-22T19:45:32.111Z,91.84
2022-09-22T19:48:04.504Z,93.26
2022-09-22T19:50:35.311Z,91.75
2022-09-22T19:53:04.324Z,91.77
2022-09-22T19:55:33.410Z,92.47
2022-09-22T19:58:02.345Z,91.00
2022-09-22T20:00:32.132Z,91.78
2022-09-22T20:03:01.490Z,92.08
2022-09-22T20:05:38.711Z,92.42
2022-09-22T20:08:15.489Z,93.34
2022-09-22T20:10:45.530Z,94.38
2022-09-22T20:13:28.914Z,93.97
2022-09-22T20:15:59.822Z,93.42
2022-09-22T20:18:29.769Z,94.30
2022-09-22T20:21:02.590Z,94.24
2022-09-22T20:23:31.653Z,95.69
2022-09-22T20:26:01.137Z,94.59
2022-09-22T20:28:30.419Z,95.08
2022-09-22T20:30:59.793Z,95.68
2022-09-22T20:33:29.133Z,96.42
2022-09-22T20:36:00.959Z,96.51
2022-09-22T20:38:30.980Z,96.15
2022-09-22T20:41:02.874Z,96.31
2022-09-22T20:43:32.167Z,95.93
2022-09-22T20:46:03.556Z,94.44
2022-09-22T20:48:33.108Z,93.66
2022-09-22T20:51:03.719Z,93.73
2022-09-22T20:53:35.400Z,93.03
2022-09-22T20:56:07.048Z,91.25
2022-09-22T20:58:40.387Z,91.46
2022-09-22T21:01:10.999Z,93.09
2022-09-22T21:03:40.361Z,92.23
2022-09-22T21:06:12.637Z,93.12
2022-09-22T21:09:01.019Z,94.80
2022-09-22T21:11:31.342Z,94.80
2022-09-22T21:14:03.908Z,94.31
2022-09-22T21:16:34.461Z,95.17
2022-09-22T21:19:04.702Z,96.23
2022-09-22T21:21:37.646Z,95.37
2022-09-22T21:24:08.153Z,94.11
2022-09-22T21:26:37.476Z,94.23
2022-09-22T21:29:06.722Z,94.22
2022-09-22T21:31:37.208Z,94.50
2022-09-22T21:34:06.716Z,94.36
2022-09-22T21:36:37.478Z,94.11
2022-09-22T21:39:06.845Z,91.97
2022-09-22T21:41:36.318Z,93.70
2022-09-22T21:44:06.166Z,93.85
2022-09-22T21:46:40.930Z,93.11
2022-09-22T21:49:11.599Z,93.92
2022-09-22T21:51:44.341Z,94.20
2022-09-22T21:54:15.427Z,92.72
2022-09-22T21:56:44.442Z,92.66
2022-09-22T21:59:14.257Z,93.03
2022-09-22T22:01:45.119Z,93.07
2022-09-22T22:04:15.190Z,91.77
2022-09-22T22:06:46.693Z,91.10
2022-09-22T22:09:18.358Z,92.57
2022-09-22T22:11:50.206Z,92.28
2022-09-22T22:14:20.907Z,91.25
2022-09-22T22:16:51.742Z,91.63
2022-09-22T22:19:22.142Z,92.22
2022-09-22T22:21:52.872Z,89.32
2022-09-22T22:24:35.121Z,88.56
2022-09-22T22:27:06.738Z,88.02
2022-09-22T22:29:38.451Z,88.72
2022-09-22T22:32:09.003Z,89.48
2022-09-22T22:34:38.540Z,87.79
2022-09-22T22:37:10.594Z,87.67
2022-09-22T22:39:39.517Z,88.57
2022-09-22T22:42:08.754Z,90.44
2022-09-22T22:44:37.648Z,90.13
2022-09-22T22:47:08.441Z,88.91
2022-09-22T22:49:37.429Z,89.60
2022-09-22T22:52:07.804Z,89.07
2022-09-22T22:54:36.711Z,88.41
2022-09-22T22:57:05.776Z,87.93
2022-09-22T22:59:34.737Z,89.14
2022-09-22T23:02:03.681Z,88.73
2022-09-22T23:04:32.986Z,87.96
2022-09-22T23:07:01.950Z,88.76
2022-09-22T23:09:32.186Z,88.91
2022-09-22T23:12:01.284Z,89.81
2022-09-22T23:14:30.164Z,87.20
2022-09-22T23:16:59.156Z,87.56
2022-09-22T23:19:28.213Z,86.51
2022-09-22T23:21:58.994Z,87.95
2022-09-22T23:24:27.921Z,86.06
2022-09-22T23:26:58.460Z,85.77
2022-09-22T23:29:27.472Z,86.13
2022-09-22T23:31:56.411Z,85.65
2022-09-22T23:34:25.364Z,85.73
2022-09-22T23:36:54.317Z,86.43
2022-09-22T23:39:23.473Z,84.93
2022-09-22T23:41:52.498Z,85.42
2022-09-22T23:44:22.779Z,86.51
2022-09-22T23:46:51.786Z,84.95
2022-09-22T23:49:20.875Z,85.31
2022-09-22T23:51:49.894Z,83.95
2022-09-22T23:54:18.798Z,84.82
2022-09-22T23:56:47.759Z,84.36
2022-09-22T23:59:16.682Z,84.69
